sensor_id;sensor_type;location;lat;lon;timestamp;P1;durP1;ratioP1;P2;durP2;ratioP2
20669;SDS011;10494;50.868;4.180;2024-01-30T00:02:21;13.25;;;6.03;;
20669;SDS011;10494;50.868;4.180;2024-01-30T00:04:46;12.75;;;6.00;;
20669;SDS011;10494;50.868;4.180;2024-01-30T00:07:12;11.23;;;5.97;;
20669;SDS011;10494;50.868;4.180;2024-01-30T00:09:38;17.02;;;6.88;;
20669;SDS011;10494;50.868;4.180;2024-01-30T00:12:04;11.70;;;6.40;;
20669;SDS011;10494;50.868;4.180;2024-01-30T00:14:31;13.75;;;6.97;;
20669;SDS011;10494;50.868;4.180;2024-01-30T00:16:56;11.00;;;6.28;;
20669;SDS011;10494;50.868;4.180;2024-01-30T00:19:22;14.20;;;6.63;;
20669;SDS011;10494;50.868;4.180;2024-01-30T00:21:47;11.00;;;6.15;;
20669;SDS011;10494;50.868;4.180;2024-01-30T00:24:13;11.85;;;6.32;;
20669;SDS011;10494;50.868;4.180;2024-01-30T00:26:39;13.25;;;6.78;;
20669;SDS011;10494;50.868;4.180;2024-01-30T00:29:04;13.43;;;6.90;;
20669;SDS011;10494;50.868;4.180;2024-01-30T00:31:31;15.07;;;6.80;;
20669;SDS011;10494;50.868;4.180;2024-01-30T00:33:57;17.08;;;6.68;;
20669;SDS011;10494;50.868;4.180;2024-01-30T00:36:22;11.98;;;6.70;;
20669;SDS011;10494;50.868;4.180;2024-01-30T00:38:48;15.15;;;7.03;;
20669;SDS011;10494;50.868;4.180;2024-01-30T00:41:13;12.93;;;6.47;;
20669;SDS011;10494;50.868;4.180;2024-01-30T00:43:39;11.40;;;6.03;;
20669;SDS011;10494;50.868;4.180;2024-01-30T00:46:05;14.98;;;6.10;;
20669;SDS011;10494;50.868;4.180;2024-01-30T00:48:31;12.10;;;6.65;;
20669;SDS011;10494;50.868;4.180;2024-01-30T00:50:56;12.70;;;6.68;;
20669;SDS011;10494;50.868;4.180;2024-01-30T00:53:22;13.10;;;6.47;;
20669;SDS011;10494;50.868;4.180;2024-01-30T00:55:47;12.90;;;6.35;;
20669;SDS011;10494;50.868;4.180;2024-01-30T00:58:13;15.65;;;5.78;;
20669;SDS011;10494;50.868;4.180;2024-01-30T01:00:39;13.57;;;6.38;;
20669;SDS011;10494;50.868;4.180;2024-01-30T01:03:04;14.00;;;6.07;;
20669;SDS011;10494;50.868;4.180;2024-01-30T01:05:30;11.82;;;6.80;;
20669;SDS011;10494;50.868;4.180;2024-01-30T01:07:56;17.30;;;6.85;;
20669;SDS011;10494;50.868;4.180;2024-01-30T01:10:22;14.30;;;5.97;;
20669;SDS011;10494;50.868;4.180;2024-01-30T01:12:47;11.68;;;6.18;;
20669;SDS011;10494;50.868;4.180;2024-01-30T01:15:13;14.27;;;6.20;;
20669;SDS011;10494;50.868;4.180;2024-01-30T01:17:39;13.85;;;6.80;;
20669;SDS011;10494;50.868;4.180;2024-01-30T01:20:05;16.83;;;7.22;;
20669;SDS011;10494;50.868;4.180;2024-01-30T01:22:32;14.55;;;5.95;;
20669;SDS011;10494;50.868;4.180;2024-01-30T01:24:58;13.00;;;6.72;;
20669;SDS011;10494;50.868;4.180;2024-01-30T01:27:24;10.82;;;5.78;;
20669;SDS011;10494;50.868;4.180;2024-01-30T01:29:50;15.50;;;6.72;;
20669;SDS011;10494;50.868;4.180;2024-01-30T01:32:16;12.30;;;6.45;;
20669;SDS011;10494;50.868;4.180;2024-01-30T01:34:41;12.48;;;6.25;;
20669;SDS011;10494;50.868;4.180;2024-01-30T01:37:07;12.77;;;6.15;;
20669;SDS011;10494;50.868;4.180;2024-01-30T01:39:32;14.45;;;6.80;;
20669;SDS011;10494;50.868;4.180;2024-01-30T01:41:58;12.00;;;5.70;;
20669;SDS011;10494;50.868;4.180;2024-01-30T01:44:24;13.13;;;6.35;;
20669;SDS011;10494;50.868;4.180;2024-01-30T01:46:49;12.57;;;6.00;;
20669;SDS011;10494;50.868;4.180;2024-01-30T01:49:17;13.98;;;6.47;;
20669;SDS011;10494;50.868;4.180;2024-01-30T01:51:44;14.32;;;6.70;;
20669;SDS011;10494;50.868;4.180;2024-01-30T01:54:12;12.90;;;6.47;;
20669;SDS011;10494;50.868;4.180;2024-01-30T01:56:39;13.52;;;6.40;;
20669;SDS011;10494;50.868;4.180;2024-01-30T01:59:06;22.02;;;6.72;;
20669;SDS011;10494;50.868;4.180;2024-01-30T02:01:33;18.50;;;7.32;;
20669;SDS011;10494;50.868;4.180;2024-01-30T02:04:00;12.70;;;6.97;;
20669;SDS011;10494;50.868;4.180;2024-01-30T02:06:26;15.07;;;6.28;;
20669;SDS011;10494;50.868;4.180;2024-01-30T02:08:52;14.18;;;6.50;;
20669;SDS011;10494;50.868;4.180;2024-01-30T02:11:19;11.70;;;5.72;;
20669;SDS011;10494;50.868;4.180;2024-01-30T02:13:46;14.73;;;6.35;;
20669;SDS011;10494;50.868;4.180;2024-01-30T02:16:11;15.18;;;5.90;;
20669;SDS011;10494;50.868;4.180;2024-01-30T02:18:37;14.48;;;6.65;;
20669;SDS011;10494;50.868;4.180;2024-01-30T02:21:07;14.57;;;6.53;;
20669;SDS011;10494;50.868;4.180;2024-01-30T02:23:33;12.85;;;5.68;;
20669;SDS011;10494;50.868;4.180;2024-01-30T02:25:59;15.88;;;6.32;;
20669;SDS011;10494;50.868;4.180;2024-01-30T02:28:25;10.27;;;5.97;;
20669;SDS011;10494;50.868;4.180;2024-01-30T02:30:52;13.85;;;6.43;;
20669;SDS011;10494;50.868;4.180;2024-01-30T02:33:18;15.02;;;6.82;;
20669;SDS011;10494;50.868;4.180;2024-01-30T02:35:43;11.77;;;6.13;;
20669;SDS011;10494;50.868;4.180;2024-01-30T02:38:09;13.32;;;5.50;;
20669;SDS011;10494;50.868;4.180;2024-01-30T02:40:34;14.10;;;6.50;;
20669;SDS011;10494;50.868;4.180;2024-01-30T02:43:01;16.52;;;6.47;;
20669;SDS011;10494;50.868;4.180;2024-01-30T02:45:27;14.52;;;6.30;;
20669;SDS011;10494;50.868;4.180;2024-01-30T02:47:53;9.30;;;5.32;;
20669;SDS011;10494;50.868;4.180;2024-01-30T02:50:18;12.07;;;5.88;;
20669;SDS011;10494;50.868;4.180;2024-01-30T02:52:44;13.18;;;6.30;;
20669;SDS011;10494;50.868;4.180;2024-01-30T02:55:10;14.70;;;6.38;;
20669;SDS011;10494;50.868;4.180;2024-01-30T02:57:35;11.57;;;5.85;;
20669;SDS011;10494;50.868;4.180;2024-01-30T03:00:01;11.65;;;5.57;;
20669;SDS011;10494;50.868;4.180;2024-01-30T03:02:29;12.80;;;6.28;;
20669;SDS011;10494;50.868;4.180;2024-01-30T03:04:54;14.68;;;6.30;;
20669;SDS011;10494;50.868;4.180;2024-01-30T03:07:20;12.70;;;6.03;;
20669;SDS011;10494;50.868;4.180;2024-01-30T03:09:45;16.85;;;6.53;;
20669;SDS011;10494;50.868;4.180;2024-01-30T03:12:11;13.45;;;6.18;;
20669;SDS011;10494;50.868;4.180;2024-01-30T03:14:37;14.13;;;6.85;;
20669;SDS011;10494;50.868;4.180;2024-01-30T03:17:02;10.82;;;6.40;;
20669;SDS011;10494;50.868;4.180;2024-01-30T03:19:28;13.52;;;5.75;;
20669;SDS011;10494;50.868;4.180;2024-01-30T03:21:54;12.00;;;5.95;;
20669;SDS011;10494;50.868;4.180;2024-01-30T03:24:19;13.50;;;6.10;;
20669;SDS011;10494;50.868;4.180;2024-01-30T03:26:45;12.68;;;5.50;;
20669;SDS011;10494;50.868;4.180;2024-01-30T03:29:11;12.35;;;5.63;;
20669;SDS011;10494;50.868;4.180;2024-01-30T03:31:37;13.45;;;5.90;;
20669;SDS011;10494;50.868;4.180;2024-01-30T03:34:02;11.95;;;6.25;;
20669;SDS011;10494;50.868;4.180;2024-01-30T03:36:28;12.45;;;5.90;;
20669;SDS011;10494;50.868;4.180;2024-01-30T03:38:53;12.30;;;6.32;;
20669;SDS011;10494;50.868;4.180;2024-01-30T03:41:19;12.45;;;5.90;;
20669;SDS011;10494;50.868;4.180;2024-01-30T03:43:45;14.13;;;6.20;;
20669;SDS011;10494;50.868;4.180;2024-01-30T03:46:11;16.00;;;6.10;;
20669;SDS011;10494;50.868;4.180;2024-01-30T03:48:37;12.20;;;6.13;;
20669;SDS011;10494;50.868;4.180;2024-01-30T03:51:04;16.92;;;6.10;;
20669;SDS011;10494;50.868;4.180;2024-01-30T03:53:30;11.00;;;6.13;;
20669;SDS011;10494;50.868;4.180;2024-01-30T03:55:55;10.43;;;5.30;;
20669;SDS011;10494;50.868;4.180;2024-01-30T03:58:21;10.85;;;5.65;;
20669;SDS011;10494;50.868;4.180;2024-01-30T04:00:47;10.05;;;5.05;;
20669;SDS011;10494;50.868;4.180;2024-01-30T04:03:14;10.93;;;5.28;;
20669;SDS011;10494;50.868;4.180;2024-01-30T04:05:40;10.82;;;6.05;;
20669;SDS011;10494;50.868;4.180;2024-01-30T04:08:06;10.50;;;5.40;;
20669;SDS011;10494;50.868;4.180;2024-01-30T04:10:32;13.13;;;5.10;;
20669;SDS011;10494;50.868;4.180;2024-01-30T04:12:58;13.02;;;5.57;;
20669;SDS011;10494;50.868;4.180;2024-01-30T04:15:24;13.07;;;6.45;;
20669;SDS011;10494;50.868;4.180;2024-01-30T04:17:50;13.40;;;5.82;;
20669;SDS011;10494;50.868;4.180;2024-01-30T04:20:16;12.52;;;5.97;;
20669;SDS011;10494;50.868;4.180;2024-01-30T04:22:43;13.00;;;5.75;;
20669;SDS011;10494;50.868;4.180;2024-01-30T04:25:09;12.10;;;6.07;;
20669;SDS011;10494;50.868;4.180;2024-01-30T04:27:36;13.38;;;6.30;;
20669;SDS011;10494;50.868;4.180;2024-01-30T04:30:02;17.08;;;6.55;;
20669;SDS011;10494;50.868;4.180;2024-01-30T04:32:28;15.20;;;6.80;;
20669;SDS011;10494;50.868;4.180;2024-01-30T04:34:53;16.63;;;6.57;;
20669;SDS011;10494;50.868;4.180;2024-01-30T04:37:19;12.43;;;6.43;;
20669;SDS011;10494;50.868;4.180;2024-01-30T04:39:44;15.43;;;6.40;;
20669;SDS011;10494;50.868;4.180;2024-01-30T04:42:10;16.75;;;6.75;;
20669;SDS011;10494;50.868;4.180;2024-01-30T04:44:35;19.42;;;7.15;;
20669;SDS011;10494;50.868;4.180;2024-01-30T04:47:01;15.35;;;6.70;;
20669;SDS011;10494;50.868;4.180;2024-01-30T04:49:27;16.27;;;7.22;;
20669;SDS011;10494;50.868;4.180;2024-01-30T04:51:54;14.82;;;7.30;;
20669;SDS011;10494;50.868;4.180;2024-01-30T04:54:19;22.20;;;7.38;;
20669;SDS011;10494;50.868;4.180;2024-01-30T04:56:45;15.48;;;6.68;;
20669;SDS011;10494;50.868;4.180;2024-01-30T04:59:11;19.92;;;6.90;;
20669;SDS011;10494;50.868;4.180;2024-01-30T05:01:37;17.38;;;7.25;;
20669;SDS011;10494;50.868;4.180;2024-01-30T05:04:02;13.55;;;6.55;;
20669;SDS011;10494;50.868;4.180;2024-01-30T05:06:28;15.88;;;6.50;;
20669;SDS011;10494;50.868;4.180;2024-01-30T05:08:54;16.23;;;6.57;;
20669;SDS011;10494;50.868;4.180;2024-01-30T05:11:20;16.83;;;6.38;;
20669;SDS011;10494;50.868;4.180;2024-01-30T05:13:46;17.58;;;6.70;;
20669;SDS011;10494;50.868;4.180;2024-01-30T05:16:11;14.60;;;6.60;;
20669;SDS011;10494;50.868;4.180;2024-01-30T05:18:37;17.08;;;6.72;;
20669;SDS011;10494;50.868;4.180;2024-01-30T05:21:03;13.75;;;6.50;;
20669;SDS011;10494;50.868;4.180;2024-01-30T05:23:28;12.38;;;6.32;;
20669;SDS011;10494;50.868;4.180;2024-01-30T05:25:54;15.30;;;7.20;;
20669;SDS011;10494;50.868;4.180;2024-01-30T05:28:20;18.17;;;6.90;;
20669;SDS011;10494;50.868;4.180;2024-01-30T05:30:45;14.82;;;6.55;;
20669;SDS011;10494;50.868;4.180;2024-01-30T05:33:11;14.65;;;6.80;;
20669;SDS011;10494;50.868;4.180;2024-01-30T05:35:37;20.55;;;7.55;;
20669;SDS011;10494;50.868;4.180;2024-01-30T05:38:03;16.50;;;6.95;;
20669;SDS011;10494;50.868;4.180;2024-01-30T05:40:29;16.13;;;6.82;;
20669;SDS011;10494;50.868;4.180;2024-01-30T05:42:55;18.38;;;7.45;;
20669;SDS011;10494;50.868;4.180;2024-01-30T05:45:21;16.70;;;7.32;;
20669;SDS011;10494;50.868;4.180;2024-01-30T05:47:48;20.27;;;6.70;;
20669;SDS011;10494;50.868;4.180;2024-01-30T05:50:13;15.32;;;7.53;;
20669;SDS011;10494;50.868;4.180;2024-01-30T05:52:39;16.48;;;6.85;;
20669;SDS011;10494;50.868;4.180;2024-01-30T05:55:05;16.40;;;7.72;;
20669;SDS011;10494;50.868;4.180;2024-01-30T05:57:31;17.13;;;7.20;;
20669;SDS011;10494;50.868;4.180;2024-01-30T05:59:57;19.75;;;6.93;;
20669;SDS011;10494;50.868;4.180;2024-01-30T06:02:23;17.20;;;6.75;;
20669;SDS011;10494;50.868;4.180;2024-01-30T06:04:48;14.60;;;7.07;;
20669;SDS011;10494;50.868;4.180;2024-01-30T06:07:14;18.83;;;6.47;;
20669;SDS011;10494;50.868;4.180;2024-01-30T06:09:39;23.80;;;7.68;;
20669;SDS011;10494;50.868;4.180;2024-01-30T06:12:06;20.73;;;7.35;;
20669;SDS011;10494;50.868;4.180;2024-01-30T06:14:31;17.25;;;7.40;;
20669;SDS011;10494;50.868;4.180;2024-01-30T06:16:58;24.10;;;7.85;;
20669;SDS011;10494;50.868;4.180;2024-01-30T06:19:24;12.65;;;6.10;;
20669;SDS011;10494;50.868;4.180;2024-01-30T06:21:49;19.10;;;7.65;;
20669;SDS011;10494;50.868;4.180;2024-01-30T06:24:15;17.05;;;7.07;;
20669;SDS011;10494;50.868;4.180;2024-01-30T06:26:41;17.00;;;7.53;;
20669;SDS011;10494;50.868;4.180;2024-01-30T06:29:06;23.40;;;7.68;;
20669;SDS011;10494;50.868;4.180;2024-01-30T06:31:32;20.55;;;7.43;;
20669;SDS011;10494;50.868;4.180;2024-01-30T06:33:58;19.65;;;6.90;;
20669;SDS011;10494;50.868;4.180;2024-01-30T06:36:24;22.63;;;8.05;;
20669;SDS011;10494;50.868;4.180;2024-01-30T06:38:49;19.80;;;6.97;;
20669;SDS011;10494;50.868;4.180;2024-01-30T06:41:15;22.88;;;7.47;;
20669;SDS011;10494;50.868;4.180;2024-01-30T06:43:40;23.17;;;8.43;;
20669;SDS011;10494;50.868;4.180;2024-01-30T06:46:06;17.98;;;7.90;;
20669;SDS011;10494;50.868;4.180;2024-01-30T06:48:32;22.83;;;8.45;;
20669;SDS011;10494;50.868;4.180;2024-01-30T06:50:57;22.73;;;7.88;;
20669;SDS011;10494;50.868;4.180;2024-01-30T06:53:23;17.00;;;7.95;;
20669;SDS011;10494;50.868;4.180;2024-01-30T06:55:51;18.35;;;7.28;;
20669;SDS011;10494;50.868;4.180;2024-01-30T06:58:17;18.75;;;7.75;;
20669;SDS011;10494;50.868;4.180;2024-01-30T07:00:42;23.00;;;7.70;;
20669;SDS011;10494;50.868;4.180;2024-01-30T07:03:08;24.48;;;8.00;;
20669;SDS011;10494;50.868;4.180;2024-01-30T07:05:34;21.92;;;7.90;;
20669;SDS011;10494;50.868;4.180;2024-01-30T07:07:59;19.83;;;7.47;;
20669;SDS011;10494;50.868;4.180;2024-01-30T07:10:25;19.48;;;7.70;;
20669;SDS011;10494;50.868;4.180;2024-01-30T07:12:51;20.98;;;7.85;;
20669;SDS011;10494;50.868;4.180;2024-01-30T07:15:16;22.75;;;7.35;;
20669;SDS011;10494;50.868;4.180;2024-01-30T07:17:44;18.35;;;7.15;;
20669;SDS011;10494;50.868;4.180;2024-01-30T07:20:11;16.90;;;7.63;;
20669;SDS011;10494;50.868;4.180;2024-01-30T07:22:36;16.55;;;7.13;;
20669;SDS011;10494;50.868;4.180;2024-01-30T07:25:02;14.88;;;7.38;;
20669;SDS011;10494;50.868;4.180;2024-01-30T07:27:28;16.75;;;6.93;;
20669;SDS011;10494;50.868;4.180;2024-01-30T07:29:53;13.55;;;6.88;;
20669;SDS011;10494;50.868;4.180;2024-01-30T07:32:19;16.20;;;6.70;;
20669;SDS011;10494;50.868;4.180;2024-01-30T07:34:45;18.80;;;6.53;;
20669;SDS011;10494;50.868;4.180;2024-01-30T07:37:10;10.60;;;5.78;;
20669;SDS011;10494;50.868;4.180;2024-01-30T07:39:40;14.27;;;6.50;;
20669;SDS011;10494;50.868;4.180;2024-01-30T07:42:06;14.20;;;6.50;;
20669;SDS011;10494;50.868;4.180;2024-01-30T07:44:31;14.80;;;6.60;;
20669;SDS011;10494;50.868;4.180;2024-01-30T07:46:57;12.27;;;5.90;;
20669;SDS011;10494;50.868;4.180;2024-01-30T07:49:23;17.40;;;6.85;;
20669;SDS011;10494;50.868;4.180;2024-01-30T07:51:49;11.93;;;6.00;;
20669;SDS011;10494;50.868;4.180;2024-01-30T07:54:14;11.02;;;5.95;;
20669;SDS011;10494;50.868;4.180;2024-01-30T07:56:40;11.35;;;6.32;;
20669;SDS011;10494;50.868;4.180;2024-01-30T07:59:09;13.40;;;5.45;;
20669;SDS011;10494;50.868;4.180;2024-01-30T08:01:36;9.60;;;5.70;;
20669;SDS011;10494;50.868;4.180;2024-01-30T08:04:02;14.52;;;6.53;;
20669;SDS011;10494;50.868;4.180;2024-01-30T08:06:27;8.82;;;5.90;;
20669;SDS011;10494;50.868;4.180;2024-01-30T08:08:53;10.45;;;6.22;;
20669;SDS011;10494;50.868;4.180;2024-01-30T08:11:22;11.23;;;5.40;;
20669;SDS011;10494;50.868;4.180;2024-01-30T08:13:54;9.80;;;5.50;;
20669;SDS011;10494;50.868;4.180;2024-01-30T08:16:20;11.95;;;6.32;;
20669;SDS011;10494;50.868;4.180;2024-01-30T08:18:46;9.02;;;5.60;;
20669;SDS011;10494;50.868;4.180;2024-01-30T08:21:12;12.38;;;5.88;;
20669;SDS011;10494;50.868;4.180;2024-01-30T08:23:38;13.63;;;6.22;;
20669;SDS011;10494;50.868;4.180;2024-01-30T08:26:04;12.68;;;6.20;;
20669;SDS011;10494;50.868;4.180;2024-01-30T08:28:30;14.80;;;6.25;;
20669;SDS011;10494;50.868;4.180;2024-01-30T08:30:56;9.75;;;5.80;;
20669;SDS011;10494;50.868;4.180;2024-01-30T08:33:22;17.27;;;6.25;;
20669;SDS011;10494;50.868;4.180;2024-01-30T08:35:48;10.95;;;5.80;;
20669;SDS011;10494;50.868;4.180;2024-01-30T08:38:13;10.43;;;5.70;;
20669;SDS011;10494;50.868;4.180;2024-01-30T08:40:39;9.05;;;5.47;;
20669;SDS011;10494;50.868;4.180;2024-01-30T08:43:05;9.60;;;5.40;;
20669;SDS011;10494;50.868;4.180;2024-01-30T08:45:30;13.32;;;6.38;;
20669;SDS011;10494;50.868;4.180;2024-01-30T08:47:56;12.45;;;5.90;;
20669;SDS011;10494;50.868;4.180;2024-01-30T08:50:22;9.35;;;5.75;;
20669;SDS011;10494;50.868;4.180;2024-01-30T08:52:47;13.98;;;6.25;;
20669;SDS011;10494;50.868;4.180;2024-01-30T08:55:13;10.20;;;5.82;;
20669;SDS011;10494;50.868;4.180;2024-01-30T08:57:39;13.63;;;5.95;;
20669;SDS011;10494;50.868;4.180;2024-01-30T09:00:05;9.63;;;5.63;;
20669;SDS011;10494;50.868;4.180;2024-01-30T09:02:34;12.52;;;5.93;;
20669;SDS011;10494;50.868;4.180;2024-01-30T09:05:00;11.48;;;6.05;;
20669;SDS011;10494;50.868;4.180;2024-01-30T09:07:25;12.40;;;5.72;;
20669;SDS011;10494;50.868;4.180;2024-01-30T09:09:51;12.45;;;5.78;;
20669;SDS011;10494;50.868;4.180;2024-01-30T09:12:17;12.98;;;6.07;;
20669;SDS011;10494;50.868;4.180;2024-01-30T09:14:42;11.05;;;6.40;;
20669;SDS011;10494;50.868;4.180;2024-01-30T09:17:09;10.68;;;5.65;;
20669;SDS011;10494;50.868;4.180;2024-01-30T09:19:35;20.52;;;5.97;;
20669;SDS011;10494;50.868;4.180;2024-01-30T09:22:01;14.88;;;6.47;;
20669;SDS011;10494;50.868;4.180;2024-01-30T09:24:28;11.45;;;6.00;;
20669;SDS011;10494;50.868;4.180;2024-01-30T09:26:53;12.70;;;6.15;;
20669;SDS011;10494;50.868;4.180;2024-01-30T09:29:19;12.82;;;5.82;;
20669;SDS011;10494;50.868;4.180;2024-01-30T09:31:45;14.02;;;6.30;;
20669;SDS011;10494;50.868;4.180;2024-01-30T09:34:11;9.65;;;6.38;;
20669;SDS011;10494;50.868;4.180;2024-01-30T09:36:37;10.48;;;6.63;;
20669;SDS011;10494;50.868;4.180;2024-01-30T09:39:02;12.55;;;6.70;;
20669;SDS011;10494;50.868;4.180;2024-01-30T09:41:29;14.07;;;7.25;;
20669;SDS011;10494;50.868;4.180;2024-01-30T09:43:58;12.43;;;7.80;;
20669;SDS011;10494;50.868;4.180;2024-01-30T09:46:27;22.02;;;7.38;;
20669;SDS011;10494;50.868;4.180;2024-01-30T09:48:55;25.98;;;8.40;;
20669;SDS011;10494;50.868;4.180;2024-01-30T09:51:23;14.25;;;8.18;;
20669;SDS011;10494;50.868;4.180;2024-01-30T09:53:50;13.57;;;7.22;;
20669;SDS011;10494;50.868;4.180;2024-01-30T09:56:16;17.40;;;7.68;;
20669;SDS011;10494;50.868;4.180;2024-01-30T09:58:42;13.50;;;6.60;;
20669;SDS011;10494;50.868;4.180;2024-01-30T10:01:08;17.88;;;6.88;;
20669;SDS011;10494;50.868;4.180;2024-01-30T10:03:33;16.08;;;7.75;;
20669;SDS011;10494;50.868;4.180;2024-01-30T10:05:59;19.45;;;7.65;;
20669;SDS011;10494;50.868;4.180;2024-01-30T10:08:26;16.17;;;7.82;;
20669;SDS011;10494;50.868;4.180;2024-01-30T10:10:52;11.82;;;7.30;;
20669;SDS011;10494;50.868;4.180;2024-01-30T10:13:18;14.10;;;7.82;;
20669;SDS011;10494;50.868;4.180;2024-01-30T10:15:44;20.58;;;8.52;;
20669;SDS011;10494;50.868;4.180;2024-01-30T10:18:12;10.65;;;7.22;;
20669;SDS011;10494;50.868;4.180;2024-01-30T10:20:38;13.00;;;7.10;;
20669;SDS011;10494;50.868;4.180;2024-01-30T10:23:04;15.60;;;7.38;;
20669;SDS011;10494;50.868;4.180;2024-01-30T10:25:32;11.90;;;7.07;;
20669;SDS011;10494;50.868;4.180;2024-01-30T10:27:58;15.82;;;7.32;;
20669;SDS011;10494;50.868;4.180;2024-01-30T10:30:25;13.52;;;8.38;;
20669;SDS011;10494;50.868;4.180;2024-01-30T10:32:52;13.18;;;7.22;;
20669;SDS011;10494;50.868;4.180;2024-01-30T10:35:17;16.77;;;7.43;;
20669;SDS011;10494;50.868;4.180;2024-01-30T10:37:43;12.43;;;6.93;;
20669;SDS011;10494;50.868;4.180;2024-01-30T10:40:12;13.07;;;6.25;;
20669;SDS011;10494;50.868;4.180;2024-01-30T10:42:41;9.30;;;5.32;;
20669;SDS011;10494;50.868;4.180;2024-01-30T10:45:12;9.43;;;4.72;;
20669;SDS011;10494;50.868;4.180;2024-01-30T10:47:39;10.05;;;3.65;;
20669;SDS011;10494;50.868;4.180;2024-01-30T10:50:07;5.88;;;2.88;;
20669;SDS011;10494;50.868;4.180;2024-01-30T10:52:34;10.50;;;2.53;;
20669;SDS011;10494;50.868;4.180;2024-01-30T10:55:00;5.85;;;2.42;;
20669;SDS011;10494;50.868;4.180;2024-01-30T10:57:26;6.03;;;1.90;;
20669;SDS011;10494;50.868;4.180;2024-01-30T11:00:02;7.28;;;2.00;;
20669;SDS011;10494;50.868;4.180;2024-01-30T11:02:30;4.38;;;1.00;;
20669;SDS011;10494;50.868;4.180;2024-01-30T11:04:57;5.72;;;1.80;;
20669;SDS011;10494;50.868;4.180;2024-01-30T11:07:29;3.15;;;1.20;;
20669;SDS011;10494;50.868;4.180;2024-01-30T11:12:24;5.75;;;1.27;;
20669;SDS011;10494;50.868;4.180;2024-01-30T11:15:37;4.88;;;1.13;;
20669;SDS011;10494;50.868;4.180;2024-01-30T11:20:29;2.70;;;0.95;;
20669;SDS011;10494;50.868;4.180;2024-01-30T11:23:01;5.80;;;0.95;;
20669;SDS011;10494;50.868;4.180;2024-01-30T11:25:31;3.13;;;0.77;;
20669;SDS011;10494;50.868;4.180;2024-01-30T11:27:57;3.35;;;1.17;;
20669;SDS011;10494;50.868;4.180;2024-01-30T11:35:53;1.48;;;0.75;;
20669;SDS011;10494;50.868;4.180;2024-01-30T11:38:19;3.13;;;0.70;;
20669;SDS011;10494;50.868;4.180;2024-01-30T11:40:44;2.42;;;0.70;;
20669;SDS011;10494;50.868;4.180;2024-01-30T11:43:10;4.60;;;1.02;;
20669;SDS011;10494;50.868;4.180;2024-01-30T11:45:37;3.25;;;0.88;;
20669;SDS011;10494;50.868;4.180;2024-01-30T11:48:04;2.75;;;0.70;;
20669;SDS011;10494;50.868;4.180;2024-01-30T11:50:31;4.00;;;0.90;;
20669;SDS011;10494;50.868;4.180;2024-01-30T11:53:00;4.63;;;0.95;;
20669;SDS011;10494;50.868;4.180;2024-01-30T11:55:26;5.57;;;0.82;;
20669;SDS011;10494;50.868;4.180;2024-01-30T11:57:57;1.58;;;0.63;;
20669;SDS011;10494;50.868;4.180;2024-01-30T12:00:23;3.53;;;0.57;;
20669;SDS011;10494;50.868;4.180;2024-01-30T12:02:53;0.40;;;0.40;;
20669;SDS011;10494;50.868;4.180;2024-01-30T12:05:22;3.00;;;0.60;;
20669;SDS011;10494;50.868;4.180;2024-01-30T12:07:48;3.60;;;0.82;;
20669;SDS011;10494;50.868;4.180;2024-01-30T12:10:14;2.25;;;0.65;;
20669;SDS011;10494;50.868;4.180;2024-01-30T12:12:44;2.72;;;0.88;;
20669;SDS011;10494;50.868;4.180;2024-01-30T12:15:14;2.95;;;0.82;;
20669;SDS011;10494;50.868;4.180;2024-01-30T12:17:40;3.55;;;0.77;;
20669;SDS011;10494;50.868;4.180;2024-01-30T12:20:07;2.42;;;0.80;;
20669;SDS011;10494;50.868;4.180;2024-01-30T12:22:38;3.60;;;0.80;;
20669;SDS011;10494;50.868;4.180;2024-01-30T12:25:11;2.55;;;0.75;;
20669;SDS011;10494;50.868;4.180;2024-01-30T12:27:38;3.03;;;0.90;;
20669;SDS011;10494;50.868;4.180;2024-01-30T12:30:05;1.48;;;0.70;;
20669;SDS011;10494;50.868;4.180;2024-01-30T12:32:35;3.00;;;1.00;;
20669;SDS011;10494;50.868;4.180;2024-01-30T12:35:11;2.75;;;0.82;;
20669;SDS011;10494;50.868;4.180;2024-01-30T12:37:38;5.22;;;1.00;;
20669;SDS011;10494;50.868;4.180;2024-01-30T12:40:04;4.13;;;1.17;;
20669;SDS011;10494;50.868;4.180;2024-01-30T12:42:34;1.88;;;0.80;;
20669;SDS011;10494;50.868;4.180;2024-01-30T12:45:01;6.05;;;0.85;;
20669;SDS011;10494;50.868;4.180;2024-01-30T12:47:31;1.73;;;0.82;;
20669;SDS011;10494;50.868;4.180;2024-01-30T12:49:57;3.83;;;0.90;;
20669;SDS011;10494;50.868;4.180;2024-01-30T12:52:23;2.65;;;0.82;;
20669;SDS011;10494;50.868;4.180;2024-01-30T12:54:49;3.63;;;0.85;;
20669;SDS011;10494;50.868;4.180;2024-01-30T12:57:16;1.90;;;0.70;;
20669;SDS011;10494;50.868;4.180;2024-01-30T12:59:43;5.35;;;1.13;;
20669;SDS011;10494;50.868;4.180;2024-01-30T13:02:09;4.95;;;0.90;;
20669;SDS011;10494;50.868;4.180;2024-01-30T13:04:35;4.43;;;0.82;;
20669;SDS011;10494;50.868;4.180;2024-01-30T13:07:01;1.25;;;0.70;;
20669;SDS011;10494;50.868;4.180;2024-01-30T13:09:29;6.85;;;0.90;;
20669;SDS011;10494;50.868;4.180;2024-01-30T13:11:55;5.28;;;0.90;;
20669;SDS011;10494;50.868;4.180;2024-01-30T13:14:20;4.85;;;0.77;;
20669;SDS011;10494;50.868;4.180;2024-01-30T13:16:46;4.15;;;0.93;;
20669;SDS011;10494;50.868;4.180;2024-01-30T13:19:12;4.25;;;0.93;;
20669;SDS011;10494;50.868;4.180;2024-01-30T13:21:37;2.67;;;0.80;;
20669;SDS011;10494;50.868;4.180;2024-01-30T13:24:03;4.07;;;0.98;;
20669;SDS011;10494;50.868;4.180;2024-01-30T13:26:31;4.65;;;1.52;;
20669;SDS011;10494;50.868;4.180;2024-01-30T13:28:57;7.80;;;1.00;;
20669;SDS011;10494;50.868;4.180;2024-01-30T13:31:23;4.57;;;1.00;;
20669;SDS011;10494;50.868;4.180;2024-01-30T13:33:48;4.97;;;1.10;;
20669;SDS011;10494;50.868;4.180;2024-01-30T13:36:14;5.85;;;0.90;;
20669;SDS011;10494;50.868;4.180;2024-01-30T13:38:40;3.75;;;1.10;;
20669;SDS011;10494;50.868;4.180;2024-01-30T13:41:05;5.82;;;1.13;;
20669;SDS011;10494;50.868;4.180;2024-01-30T13:43:31;5.43;;;1.20;;
20669;SDS011;10494;50.868;4.180;2024-01-30T13:45:57;4.93;;;1.25;;
20669;SDS011;10494;50.868;4.180;2024-01-30T13:48:22;5.20;;;1.20;;
20669;SDS011;10494;50.868;4.180;2024-01-30T13:50:48;8.02;;;1.30;;
20669;SDS011;10494;50.868;4.180;2024-01-30T13:53:14;6.70;;;1.25;;
20669;SDS011;10494;50.868;4.180;2024-01-30T13:55:39;2.97;;;1.13;;
20669;SDS011;10494;50.868;4.180;2024-01-30T13:58:05;5.13;;;1.23;;
20669;SDS011;10494;50.868;4.180;2024-01-30T14:00:32;1.83;;;1.05;;
20669;SDS011;10494;50.868;4.180;2024-01-30T14:02:58;3.85;;;1.40;;
20669;SDS011;10494;50.868;4.180;2024-01-30T14:05:24;2.72;;;1.00;;
20669;SDS011;10494;50.868;4.180;2024-01-30T14:07:51;3.40;;;0.80;;
20669;SDS011;10494;50.868;4.180;2024-01-30T14:10:17;2.03;;;1.00;;
20669;SDS011;10494;50.868;4.180;2024-01-30T14:12:43;2.15;;;1.25;;
20669;SDS011;10494;50.868;4.180;2024-01-30T14:15:09;4.10;;;1.10;;
20669;SDS011;10494;50.868;4.180;2024-01-30T14:17:36;3.42;;;0.95;;
20669;SDS011;10494;50.868;4.180;2024-01-30T14:20:02;4.53;;;1.30;;
20669;SDS011;10494;50.868;4.180;2024-01-30T14:22:29;4.30;;;0.90;;
20669;SDS011;10494;50.868;4.180;2024-01-30T14:24:55;5.65;;;1.42;;
20669;SDS011;10494;50.868;4.180;2024-01-30T14:27:21;5.00;;;1.52;;
20669;SDS011;10494;50.868;4.180;2024-01-30T14:29:47;7.82;;;1.23;;
20669;SDS011;10494;50.868;4.180;2024-01-30T14:32:12;4.57;;;1.15;;
20669;SDS011;10494;50.868;4.180;2024-01-30T14:34:38;6.35;;;1.52;;
20669;SDS011;10494;50.868;4.180;2024-01-30T14:37:04;2.20;;;0.85;;
20669;SDS011;10494;50.868;4.180;2024-01-30T14:39:30;5.95;;;1.30;;
20669;SDS011;10494;50.868;4.180;2024-01-30T14:41:55;5.18;;;1.08;;
20669;SDS011;10494;50.868;4.180;2024-01-30T14:44:21;5.40;;;1.10;;